sensor_id;sensor_type;location;lat;lon;timestamp;pressure;altitude;pressure_sealevel;temperature;humidity
9139;BME280;4604;48.616;9.548;2023-10-13T00:00:40;96996.00;;;20.88;40.92
9139;BME280;4604;48.616;9.548;2023-10-13T00:03:07;96993.34;;;21.01;40.42
9139;BME280;4604;48.616;9.548;2023-10-13T00:05:40;96999.94;;;20.85;40.89
9139;BME280;4604;48.616;9.548;2023-10-13T00:08:09;96989.97;;;20.72;41.78
9139;BME280;4604;48.616;9.548;2023-10-13T00:10:36;97002.53;;;20.59;41.96
9139;BME280;4604;48.616;9.548;2023-10-13T00:13:04;96994.59;;;20.50;42.22
9139;BME280;4604;48.616;9.548;2023-10-13T00:15:39;96996.44;;;20.43;42.84
9139;BME280;4604;48.616;9.548;2023-10-13T00:18:10;96996.41;;;20.37;43.82
9139;BME280;4604;48.616;9.548;2023-10-13T00:20:40;97000.69;;;20.31;42.88
9139;BME280;4604;48.616;9.548;2023-10-13T00:23:12;96991.66;;;20.32;42.80
9139;BME280;4604;48.616;9.548;2023-10-13T00:25:38;96990.38;;;20.28;43.27
9139;BME280;4604;48.616;9.548;2023-10-13T00:28:10;96984.63;;;20.24;43.84
9139;BME280;4604;48.616;9.548;2023-10-13T00:30:37;96984.81;;;20.23;43.42
9139;BME280;4604;48.616;9.548;2023-10-13T00:33:04;96983.53;;;20.19;43.25
9139;BME280;4604;48.616;9.548;2023-10-13T00:35:30;96977.16;;;20.20;42.85
9139;BME280;4604;48.616;9.548;2023-10-13T00:38:02;96980.44;;;20.15;43.08
9139;BME280;4604;48.616;9.548;2023-10-13T00:40:38;96965.31;;;20.01;43.25
9139;BME280;4604;48.616;9.548;2023-10-13T00:43:10;96972.53;;;20.00;43.87
9139;BME280;4604;48.616;9.548;2023-10-13T00:45:56;96956.22;;;19.95;44.20
9139;BME280;4604;48.616;9.548;2023-10-13T00:48:24;96964.50;;;20.00;44.87
9139;BME280;4604;48.616;9.548;2023-10-13T00:50:56;96969.38;;;19.90;44.50
9139;BME280;4604;48.616;9.548;2023-10-13T00:53:25;96968.50;;;19.83;44.37
9139;BME280;4604;48.616;9.548;2023-10-13T00:55:54;96967.06;;;19.80;44.26
9139;BME280;4604;48.616;9.548;2023-10-13T00:58:22;96962.88;;;19.71;44.79
9139;BME280;4604;48.616;9.548;2023-10-13T01:00:53;96966.28;;;19.65;45.33
9139;BME280;4604;48.616;9.548;2023-10-13T01:03:42;96964.81;;;19.56;46.33
9139;BME280;4604;48.616;9.548;2023-10-13T01:06:09;96971.75;;;19.50;46.66
9139;BME280;4604;48.616;9.548;2023-10-13T01:08:37;96970.03;;;19.42;46.50
9139;BME280;4604;48.616;9.548;2023-10-13T01:11:04;96965.59;;;19.28;46.97
9139;BME280;4604;48.616;9.548;2023-10-13T01:13:34;96976.84;;;19.17;47.53
9139;BME280;4604;48.616;9.548;2023-10-13T01:16:02;96971.59;;;19.09;47.97
9139;BME280;4604;48.616;9.548;2023-10-13T01:18:28;96962.25;;;18.98;48.65
9139;BME280;4604;48.616;9.548;2023-10-13T01:20:55;96964.22;;;18.89;49.44
9139;BME280;4604;48.616;9.548;2023-10-13T01:23:26;96962.06;;;18.78;49.96
9139;BME280;4604;48.616;9.548;2023-10-13T01:25:54;96958.47;;;18.71;50.29
9139;BME280;4604;48.616;9.548;2023-10-13T01:28:19;96958.94;;;18.59;50.60
9139;BME280;4604;48.616;9.548;2023-10-13T01:30:47;96945.31;;;18.54;51.10
9139;BME280;4604;48.616;9.548;2023-10-13T01:33:16;96952.00;;;18.44;51.73
9139;BME280;4604;48.616;9.548;2023-10-13T01:35:43;96950.63;;;18.33;52.31
9139;BME280;4604;48.616;9.548;2023-10-13T01:38:13;96946.59;;;18.22;52.86
9139;BME280;4604;48.616;9.548;2023-10-13T01:40:41;96947.72;;;18.13;53.51
9139;BME280;4604;48.616;9.548;2023-10-13T01:43:08;96951.97;;;18.07;54.17
9139;BME280;4604;48.616;9.548;2023-10-13T01:45:36;96959.63;;;17.95;55.09
9139;BME280;4604;48.616;9.548;2023-10-13T01:48:04;96959.41;;;17.82;55.73
9139;BME280;4604;48.616;9.548;2023-10-13T01:50:35;96957.38;;;17.69;56.25
9139;BME280;4604;48.616;9.548;2023-10-13T01:53:01;96967.47;;;17.59;56.85
9139;BME280;4604;48.616;9.548;2023-10-13T01:55:38;96959.91;;;17.48;57.49
9139;BME280;4604;48.616;9.548;2023-10-13T01:58:09;96962.78;;;17.46;58.38
9139;BME280;4604;48.616;9.548;2023-10-13T02:00:40;96962.19;;;17.36;58.88
9139;BME280;4604;48.616;9.548;2023-10-13T02:03:08;96959.88;;;17.33;59.22
9139;BME280;4604;48.616;9.548;2023-10-13T02:05:41;96956.94;;;17.28;59.73
9139;BME280;4604;48.616;9.548;2023-10-13T02:08:12;96950.50;;;17.22;60.33
9139;BME280;4604;48.616;9.548;2023-10-13T02:10:44;96959.84;;;17.18;60.34
9139;BME280;4604;48.616;9.548;2023-10-13T02:13:13;96953.22;;;17.14;60.48
9139;BME280;4604;48.616;9.548;2023-10-13T02:15:43;96942.75;;;17.13;60.46
9139;BME280;4604;48.616;9.548;2023-10-13T02:18:13;96943.44;;;17.06;60.84
9139;BME280;4604;48.616;9.548;2023-10-13T02:20:39;96947.84;;;16.99;61.33
9139;BME280;4604;48.616;9.548;2023-10-13T02:23:11;96943.69;;;16.97;61.59
9139;BME280;4604;48.616;9.548;2023-10-13T02:25:37;96941.56;;;16.92;61.98
9139;BME280;4604;48.616;9.548;2023-10-13T02:28:12;96940.09;;;16.89;62.63
9139;BME280;4604;48.616;9.548;2023-10-13T02:30:41;96930.44;;;16.88;62.59
9139;BME280;4604;48.616;9.548;2023-10-13T02:33:11;96924.44;;;16.86;62.94
9139;BME280;4604;48.616;9.548;2023-10-13T02:35:38;96918.19;;;16.79;63.33
9139;BME280;4604;48.616;9.548;2023-10-13T02:38:07;96914.81;;;16.77;63.45
9139;BME280;4604;48.616;9.548;2023-10-13T02:40:37;96918.34;;;16.78;63.22
9139;BME280;4604;48.616;9.548;2023-10-13T02:43:03;96913.19;;;16.76;63.04
9139;BME280;4604;48.616;9.548;2023-10-13T02:45:32;96919.69;;;16.74;62.73
9139;BME280;4604;48.616;9.548;2023-10-13T02:47:58;96915.50;;;16.79;62.31
9139;BME280;4604;48.616;9.548;2023-10-13T02:50:40;96915.50;;;16.79;61.66
9139;BME280;4604;48.616;9.548;2023-10-13T02:53:09;96911.19;;;16.78;61.57
9139;BME280;4604;48.616;9.548;2023-10-13T02:55:49;96904.84;;;16.79;61.33
9139;BME280;4604;48.616;9.548;2023-10-13T02:58:17;96904.03;;;16.79;61.18
9139;BME280;4604;48.616;9.548;2023-10-13T03:00:45;96903.00;;;16.80;60.79
9139;BME280;4604;48.616;9.548;2023-10-13T03:03:11;96895.22;;;16.78;60.41
9139;BME280;4604;48.616;9.548;2023-10-13T03:05:40;96891.47;;;16.87;59.53
9139;BME280;4604;48.616;9.548;2023-10-13T03:08:07;96891.94;;;16.91;58.95
9139;BME280;4604;48.616;9.548;2023-10-13T03:10:36;96880.56;;;16.97;58.52
9139;BME280;4604;48.616;9.548;2023-10-13T03:13:05;96885.81;;;17.05;57.97
9139;BME280;4604;48.616;9.548;2023-10-13T03:15:33;96885.06;;;17.11;57.43
9139;BME280;4604;48.616;9.548;2023-10-13T03:18:02;96880.78;;;17.25;56.89
9139;BME280;4604;48.616;9.548;2023-10-13T03:20:29;96879.75;;;17.26;56.82
9139;BME280;4604;48.616;9.548;2023-10-13T03:22:57;96874.72;;;17.31;56.24
9139;BME280;4604;48.616;9.548;2023-10-13T03:25:24;96876.19;;;17.34;56.34
9139;BME280;4604;48.616;9.548;2023-10-13T03:27:55;96877.84;;;17.35;56.28
9139;BME280;4604;48.616;9.548;2023-10-13T03:30:30;96875.16;;;17.35;56.26
9139;BME280;4604;48.616;9.548;2023-10-13T03:33:05;96873.31;;;17.36;56.11
9139;BME280;4604;48.616;9.548;2023-10-13T03:35:34;96868.19;;;17.34;56.11
9139;BME280;4604;48.616;9.548;2023-10-13T03:38:08;96871.47;;;17.36;55.80
9139;BME280;4604;48.616;9.548;2023-10-13T03:40:43;96878.22;;;17.32;55.80
9139;BME280;4604;48.616;9.548;2023-10-13T03:43:14;96869.38;;;17.31;55.51
9139;BME280;4604;48.616;9.548;2023-10-13T03:45:48;96871.31;;;17.38;55.16
9139;BME280;4604;48.616;9.548;2023-10-13T03:48:19;96867.81;;;17.37;55.05
9139;BME280;4604;48.616;9.548;2023-10-13T03:50:55;96864.97;;;17.39;55.02
9139;BME280;4604;48.616;9.548;2023-10-13T03:53:29;96869.13;;;17.41;54.91
9139;BME280;4604;48.616;9.548;2023-10-13T03:55:58;96870.94;;;17.41;55.07
9139;BME280;4604;48.616;9.548;2023-10-13T03:58:34;96864.31;;;17.37;55.32
9139;BME280;4604;48.616;9.548;2023-10-13T04:01:01;96865.59;;;17.41;55.01
9139;BME280;4604;48.616;9.548;2023-10-13T04:03:30;96867.72;;;17.45;54.83
9139;BME280;4604;48.616;9.548;2023-10-13T04:06:01;96870.75;;;17.42;54.97
9139;BME280;4604;48.616;9.548;2023-10-13T04:08:31;96860.25;;;17.41;55.15
9139;BME280;4604;48.616;9.548;2023-10-13T04:11:35;96866.06;;;17.44;54.87
9139;BME280;4604;48.616;9.548;2023-10-13T04:14:25;96862.47;;;17.37;54.99
9139;BME280;4604;48.616;9.548;2023-10-13T04:17:10;96866.44;;;17.41;54.76
9139;BME280;4604;48.616;9.548;2023-10-13T04:19:40;96867.38;;;17.48;54.26
9139;BME280;4604;48.616;9.548;2023-10-13T04:22:27;96862.22;;;17.47;54.39
9139;BME280;4604;48.616;9.548;2023-10-13T04:25:16;96864.69;;;17.48;54.33
9139;BME280;4604;48.616;9.548;2023-10-13T04:28:00;96862.38;;;17.45;54.42
9139;BME280;4604;48.616;9.548;2023-10-13T04:30:43;96860.84;;;17.51;54.31
9139;BME280;4604;48.616;9.548;2023-10-13T04:33:25;96840.13;;;17.38;54.07
9139;BME280;4604;48.616;9.548;2023-10-13T04:36:19;96860.09;;;17.57;54.02
9139;BME280;4604;48.616;9.548;2023-10-13T04:39:10;96854.56;;;17.59;53.79
9139;BME280;4604;48.616;9.548;2023-10-13T04:41:39;96854.09;;;17.55;53.45
9139;BME280;4604;48.616;9.548;2023-10-13T04:44:08;96847.41;;;17.44;54.06
9139;BME280;4604;48.616;9.548;2023-10-13T04:47:09;96845.56;;;17.45;53.99
9139;BME280;4604;48.616;9.548;2023-10-13T04:49:43;96843.91;;;17.44;54.18
9139;BME280;4604;48.616;9.548;2023-10-13T04:52:16;96844.25;;;17.41;54.03
9139;BME280;4604;48.616;9.548;2023-10-13T04:55:11;96847.41;;;17.44;54.09
9139;BME280;4604;48.616;9.548;2023-10-13T04:57:50;96845.09;;;17.41;54.41
9139;BME280;4604;48.616;9.548;2023-10-13T05:00:25;96845.94;;;17.42;54.47
9139;BME280;4604;48.616;9.548;2023-10-13T05:03:09;96826.88;;;17.30;54.56
9139;BME280;4604;48.616;9.548;2023-10-13T05:06:16;96844.91;;;17.43;54.63
9139;BME280;4604;48.616;9.548;2023-10-13T05:09:02;96838.47;;;17.37;54.94
9139;BME280;4604;48.616;9.548;2023-10-13T05:11:46;96829.81;;;17.35;55.07
9139;BME280;4604;48.616;9.548;2023-10-13T05:14:30;96833.84;;;17.31;55.20
9139;BME280;4604;48.616;9.548;2023-10-13T05:17:14;96824.94;;;17.24;55.52
9139;BME280;4604;48.616;9.548;2023-10-13T05:20:13;96828.44;;;17.24;55.72
9139;BME280;4604;48.616;9.548;2023-10-13T05:22:57;96824.47;;;17.20;55.94
9139;BME280;4604;48.616;9.548;2023-10-13T05:25:42;96825.03;;;17.16;56.19
9139;BME280;4604;48.616;9.548;2023-10-13T05:28:26;96827.59;;;17.09;56.41
9139;BME280;4604;48.616;9.548;2023-10-13T05:31:10;96829.72;;;17.14;56.81
9139;BME280;4604;48.616;9.548;2023-10-13T05:33:54;96820.88;;;16.98;57.00
9139;BME280;4604;48.616;9.548;2023-10-13T05:36:38;96835.59;;;17.09;57.12
9139;BME280;4604;48.616;9.548;2023-10-13T05:39:23;96807.00;;;16.88;57.16
9139;BME280;4604;48.616;9.548;2023-10-13T05:42:09;96832.66;;;17.04;57.05
9139;BME280;4604;48.616;9.548;2023-10-13T05:44:53;96833.13;;;17.07;56.46
9139;BME280;4604;48.616;9.548;2023-10-13T05:47:42;96832.59;;;17.27;54.72
9139;BME280;4604;48.616;9.548;2023-10-13T05:50:26;96827.31;;;17.33;54.36
9139;BME280;4604;48.616;9.548;2023-10-13T05:53:15;96823.94;;;17.40;54.47
9139;BME280;4604;48.616;9.548;2023-10-13T05:56:08;96823.81;;;17.48;54.23
9139;BME280;4604;48.616;9.548;2023-10-13T05:58:53;96829.09;;;17.56;53.73
9139;BME280;4604;48.616;9.548;2023-10-13T06:01:37;96819.66;;;17.60;53.69
9139;BME280;4604;48.616;9.548;2023-10-13T06:04:21;96825.75;;;17.69;53.14
9139;BME280;4604;48.616;9.548;2023-10-13T06:07:05;96816.38;;;17.73;53.21
9139;BME280;4604;48.616;9.548;2023-10-13T06:09:49;96830.31;;;17.75;53.17
9139;BME280;4604;48.616;9.548;2023-10-13T06:12:33;96819.97;;;17.80;52.90
9139;BME280;4604;48.616;9.548;2023-10-13T06:15:19;96824.38;;;17.88;52.69
9139;BME280;4604;48.616;9.548;2023-10-13T06:18:11;96822.53;;;17.88;52.80
9139;BME280;4604;48.616;9.548;2023-10-13T06:20:55;96822.13;;;17.91;52.70
9139;BME280;4604;48.616;9.548;2023-10-13T06:23:40;96812.75;;;17.95;52.61
9139;BME280;4604;48.616;9.548;2023-10-13T06:26:24;96821.00;;;18.01;52.73
9139;BME280;4604;48.616;9.548;2023-10-13T06:29:08;96818.16;;;18.02;52.36
9139;BME280;4604;48.616;9.548;2023-10-13T06:31:36;96819.94;;;18.16;52.19
9139;BME280;4604;48.616;9.548;2023-10-13T06:34:03;96824.34;;;18.24;51.83
9139;BME280;4604;48.616;9.548;2023-10-13T06:36:30;96810.34;;;18.22;51.42
9139;BME280;4604;48.616;9.548;2023-10-13T06:38:58;96830.06;;;18.43;51.31
9139;BME280;4604;48.616;9.548;2023-10-13T06:41:38;96829.34;;;18.55;50.89
9139;BME280;4604;48.616;9.548;2023-10-13T06:44:06;96834.31;;;18.80;49.28
9139;BME280;4604;48.616;9.548;2023-10-13T06:46:41;96832.34;;;18.89;48.77
9139;BME280;4604;48.616;9.548;2023-10-13T06:49:09;96799.03;;;18.91;48.15
9139;BME280;4604;48.616;9.548;2023-10-13T06:51:38;96803.88;;;19.02;48.13
9139;BME280;4604;48.616;9.548;2023-10-13T06:54:06;96835.13;;;19.30;47.69
9139;BME280;4604;48.616;9.548;2023-10-13T06:56:36;96799.63;;;19.21;46.87
9139;BME280;4604;48.616;9.548;2023-10-13T06:59:05;96840.22;;;19.60;46.44
9139;BME280;4604;48.616;9.548;2023-10-13T07:01:33;96828.53;;;19.67;45.75
9139;BME280;4604;48.616;9.548;2023-10-13T07:04:06;96831.69;;;19.78;45.60
9139;BME280;4604;48.616;9.548;2023-10-13T07:06:39;96836.06;;;19.92;44.58
9139;BME280;4604;48.616;9.548;2023-10-13T07:09:08;96815.69;;;19.98;43.87
9139;BME280;4604;48.616;9.548;2023-10-13T07:11:41;96843.34;;;20.12;43.81
9139;BME280;4604;48.616;9.548;2023-10-13T07:14:09;96840.66;;;20.12;43.34
9139;BME280;4604;48.616;9.548;2023-10-13T07:16:42;96846.47;;;20.28;42.75
9139;BME280;4604;48.616;9.548;2023-10-13T07:19:14;96841.78;;;20.44;41.95
9139;BME280;4604;48.616;9.548;2023-10-13T07:21:46;96806.50;;;20.27;42.06
9139;BME280;4604;48.616;9.548;2023-10-13T07:24:13;96852.97;;;20.61;41.44
9139;BME280;4604;48.616;9.548;2023-10-13T07:26:41;96830.47;;;20.55;41.40
9139;BME280;4604;48.616;9.548;2023-10-13T07:29:11;96846.59;;;20.68;41.52
9139;BME280;4604;48.616;9.548;2023-10-13T07:31:39;96844.75;;;20.76;41.21
9139;BME280;4604;48.616;9.548;2023-10-13T07:34:10;96824.91;;;20.70;40.95
9139;BME280;4604;48.616;9.548;2023-10-13T07:36:53;96826.78;;;20.83;40.94
9139;BME280;4604;48.616;9.548;2023-10-13T07:39:25;96820.59;;;20.89;40.25
9139;BME280;4604;48.616;9.548;2023-10-13T07:41:53;96841.41;;;21.13;40.02
9139;BME280;4604;48.616;9.548;2023-10-13T07:44:20;96840.78;;;21.25;39.60
9139;BME280;4604;48.616;9.548;2023-10-13T07:46:51;96843.47;;;21.25;39.73
9139;BME280;4604;48.616;9.548;2023-10-13T07:49:28;96839.13;;;21.37;39.38
9139;BME280;4604;48.616;9.548;2023-10-13T07:51:58;96834.78;;;21.56;38.77
9139;BME280;4604;48.616;9.548;2023-10-13T07:54:32;96831.22;;;21.69;38.59
9139;BME280;4604;48.616;9.548;2023-10-13T07:56:59;96810.09;;;21.79;38.17
9139;BME280;4604;48.616;9.548;2023-10-13T07:59:25;96822.28;;;21.82;37.84
9139;BME280;4604;48.616;9.548;2023-10-13T08:01:54;96831.50;;;21.99;37.55
9139;BME280;4604;48.616;9.548;2023-10-13T08:04:37;96830.00;;;22.10;37.30
9139;BME280;4604;48.616;9.548;2023-10-13T08:07:05;96839.44;;;22.26;37.15
9139;BME280;4604;48.616;9.548;2023-10-13T08:09:39;96829.34;;;22.21;37.26
9139;BME280;4604;48.616;9.548;2023-10-13T08:12:08;96832.22;;;22.26;37.01
9139;BME280;4604;48.616;9.548;2023-10-13T08:14:37;96827.38;;;22.41;37.13
9139;BME280;4604;48.616;9.548;2023-10-13T08:17:06;96831.91;;;22.41;37.37
9139;BME280;4604;48.616;9.548;2023-10-13T08:19:38;96817.97;;;22.51;37.47
9139;BME280;4604;48.616;9.548;2023-10-13T08:22:11;96828.25;;;22.60;37.23
9139;BME280;4604;48.616;9.548;2023-10-13T08:24:51;96828.22;;;22.67;37.04
9139;BME280;4604;48.616;9.548;2023-10-13T08:27:40;96826.47;;;22.79;36.92
9139;BME280;4604;48.616;9.548;2023-10-13T08:30:31;96827.25;;;22.86;36.95
9139;BME280;4604;48.616;9.548;2023-10-13T08:33:08;96820.69;;;23.07;36.60
9139;BME280;4604;48.616;9.548;2023-10-13T08:35:43;96822.31;;;23.08;36.65
9139;BME280;4604;48.616;9.548;2023-10-13T08:38:32;96824.97;;;23.15;36.28
9139;BME280;4604;48.616;9.548;2023-10-13T08:41:16;96816.91;;;23.34;36.20
9139;BME280;4604;48.616;9.548;2023-10-13T08:44:02;96816.16;;;23.45;35.92
9139;BME280;4604;48.616;9.548;2023-10-13T08:46:34;96810.72;;;23.52;35.88
9139;BME280;4604;48.616;9.548;2023-10-13T08:49:32;96809.94;;;23.63;35.77
9139;BME280;4604;48.616;9.548;2023-10-13T08:52:05;96806.53;;;23.74;35.23
9139;BME280;4604;48.616;9.548;2023-10-13T08:54:57;96809.31;;;23.86;34.97
9139;BME280;4604;48.616;9.548;2023-10-13T08:57:58;96807.56;;;23.91;34.91
9139;BME280;4604;48.616;9.548;2023-10-13T09:00:39;96810.09;;;24.05;34.98
9139;BME280;4604;48.616;9.548;2023-10-13T09:03:40;96803.69;;;24.18;34.39
9139;BME280;4604;48.616;9.548;2023-10-13T09:06:12;96806.19;;;24.19;34.46
9139;BME280;4604;48.616;9.548;2023-10-13T09:08:40;96805.28;;;24.37;34.21
9139;BME280;4604;48.616;9.548;2023-10-13T09:11:39;96762.75;;;24.09;33.98
9139;BME280;4604;48.616;9.548;2023-10-13T09:14:17;96797.31;;;24.42;33.95
9139;BME280;4604;48.616;9.548;2023-10-13T09:17:01;96798.56;;;24.46;34.08
9139;BME280;4604;48.616;9.548;2023-10-13T09:19:46;96806.81;;;24.63;33.80
9139;BME280;4604;48.616;9.548;2023-10-13T09:22:19;96798.38;;;24.71;33.31
9139;BME280;4604;48.616;9.548;2023-10-13T09:24:57;96798.50;;;24.88;33.30
9139;BME280;4604;48.616;9.548;2023-10-13T09:27:29;96796.16;;;24.92;32.79
9139;BME280;4604;48.616;9.548;2023-10-13T09:29:58;96792.88;;;25.02;32.81
9139;BME280;4604;48.616;9.548;2023-10-13T09:32:32;96792.75;;;25.08;32.59
9139;BME280;4604;48.616;9.548;2023-10-13T09:35:09;96790.69;;;25.22;32.03
9139;BME280;4604;48.616;9.548;2023-10-13T09:37:39;96791.13;;;25.31;32.09
9139;BME280;4604;48.616;9.548;2023-10-13T09:40:08;96782.91;;;25.26;30.59
9139;BME280;4604;48.616;9.548;2023-10-13T09:42:51;96786.19;;;25.39;31.55
9139;BME280;4604;48.616;9.548;2023-10-13T09:45:24;96779.97;;;25.51;31.96
9139;BME280;4604;48.616;9.548;2023-10-13T09:47:55;96781.81;;;25.62;32.68
9139;BME280;4604;48.616;9.548;2023-10-13T09:50:37;96759.69;;;25.65;32.82
9139;BME280;4604;48.616;9.548;2023-10-13T09:53:10;96759.69;;;25.65;32.33
9139;BME280;4604;48.616;9.548;2023-10-13T09:55:40;96758.38;;;25.68;32.91
9139;BME280;4604;48.616;9.548;2023-10-13T09:58:12;96765.78;;;25.72;32.82
9139;BME280;4604;48.616;9.548;2023-10-13T10:00:45;96753.44;;;25.76;33.06
9139;BME280;4604;48.616;9.548;2023-10-13T10:03:21;96755.25;;;25.99;32.68
9139;BME280;4604;48.616;9.548;2023-10-13T10:06:05;96757.81;;;26.06;32.48
9139;BME280;4604;48.616;9.548;2023-10-13T10:08:32;96746.84;;;26.13;32.67
9139;BME280;4604;48.616;9.548;2023-10-13T10:11:07;96744.09;;;26.24;32.24
9139;BME280;4604;48.616;9.548;2023-10-13T10:13:47;96743.84;;;26.26;32.14
9139;BME280;4604;48.616;9.548;2023-10-13T10:16:21;96741.47;;;26.30;32.22
9139;BME280;4604;48.616;9.548;2023-10-13T10:18:59;96745.50;;;26.44;32.03
9139;BME280;4604;48.616;9.548;2023-10-13T10:21:33;96720.00;;;26.40;31.79
9139;BME280;4604;48.616;9.548;2023-10-13T10:24:01;96736.13;;;26.63;31.22
9139;BME280;4604;48.616;9.548;2023-10-13T10:26:30;96707.31;;;26.57;30.97
9139;BME280;4604;48.616;9.548;2023-10-13T10:28:58;96731.50;;;26.81;31.08
9139;BME280;4604;48.616;9.548;2023-10-13T10:31:32;96723.88;;;26.95;30.68
9139;BME280;4604;48.616;9.548;2023-10-13T10:34:12;96713.91;;;27.00;29.65
9139;BME280;4604;48.616;9.548;2023-10-13T10:36:39;96720.72;;;27.03;29.01
9139;BME280;4604;48.616;9.548;2023-10-13T10:39:08;96720.97;;;27.01;28.84
9139;BME280;4604;48.616;9.548;2023-10-13T10:41:37;96719.28;;;26.95;28.73
9139;BME280;4604;48.616;9.548;2023-10-13T10:44:11;96672.03;;;26.69;28.55
9139;BME280;4604;48.616;9.548;2023-10-13T10:46:49;96705.75;;;27.17;28.91
9139;BME280;4604;48.616;9.548;2023-10-13T10:49:23;96701.75;;;27.20;28.79
9139;BME280;4604;48.616;9.548;2023-10-13T10:51:58;96699.97;;;27.52;28.54
9139;BME280;4604;48.616;9.548;2023-10-13T10:54:29;96693.13;;;27.45;28.07
9139;BME280;4604;48.616;9.548;2023-10-13T10:56:57;96695.88;;;27.50;28.10
9139;BME280;4604;48.616;9.548;2023-10-13T10:59:37;96692.75;;;27.58;29.00
9139;BME280;4604;48.616;9.548;2023-10-13T11:02:04;96682.03;;;27.46;28.05
9139;BME280;4604;48.616;9.548;2023-10-13T11:04:34;96687.88;;;27.60;28.04
9139;BME280;4604;48.616;9.548;2023-10-13T11:07:06;96671.97;;;27.69;28.22
9139;BME280;4604;48.616;9.548;2023-10-13T11:09:35;96675.78;;;27.68;28.13
9139;BME280;4604;48.616;9.548;2023-10-13T11:12:12;96678.22;;;27.69;28.51
9139;BME280;4604;48.616;9.548;2023-10-13T11:15:00;96673.31;;;27.66;28.26
9139;BME280;4604;48.616;9.548;2023-10-13T11:17:27;96673.56;;;27.65;27.70
9139;BME280;4604;48.616;9.548;2023-10-13T11:20:17;96664.41;;;27.71;28.24
9139;BME280;4604;48.616;9.548;2023-10-13T11:22:51;96666.78;;;27.67;28.26
9139;BME280;4604;48.616;9.548;2023-10-13T11:25:22;96661.19;;;27.74;28.53
9139;BME280;4604;48.616;9.548;2023-10-13T11:27:55;96656.38;;;27.81;29.02
9139;BME280;4604;48.616;9.548;2023-10-13T11:30:28;96639.97;;;27.66;28.62
9139;BME280;4604;48.616;9.548;2023-10-13T11:33:26;96625.50;;;27.60;29.23
9139;BME280;4604;48.616;9.548;2023-10-13T11:35:55;96661.19;;;27.74;29.36
9139;BME280;4604;48.616;9.548;2023-10-13T11:38:22;96649.75;;;27.72;29.36
9139;BME280;4604;48.616;9.548;2023-10-13T11:40:57;96658.94;;;27.66;29.30
9139;BME280;4604;48.616;9.548;2023-10-13T11:43:49;96640.66;;;27.56;29.61
9139;BME280;4604;48.616;9.548;2023-10-13T11:46:32;96651.09;;;27.69;29.90
9139;BME280;4604;48.616;9.548;2023-10-13T11:49:31;96631.78;;;27.61;29.87
9139;BME280;4604;48.616;9.548;2023-10-13T11:52:03;96595.00;;;27.48;29.54
9139;BME280;4604;48.616;9.548;2023-10-13T11:54:41;96609.50;;;27.59;29.38
9139;BME280;4604;48.616;9.548;2023-10-13T11:57:08;96636.50;;;27.98;29.44
9139;BME280;4604;48.616;9.548;2023-10-13T11:59:35;96626.50;;;27.76;29.63
9139;BME280;4604;48.616;9.548;2023-10-13T12:02:11;96602.13;;;27.54;28.68
9139;BME280;4604;48.616;9.548;2023-10-13T12:04:55;96624.91;;;27.80;27.76
9139;BME280;4604;48.616;9.548;2023-10-13T12:07:24;96611.59;;;27.79;27.35
9139;BME280;4604;48.616;9.548;2023-10-13T12:10:06;96615.94;;;27.80;26.87
9139;BME280;4604;48.616;9.548;2023-10-13T12:12:42;96567.22;;;27.63;26.51
9139;BME280;4604;48.616;9.548;2023-10-13T12:15:12;96546.53;;;27.51;25.50
9139;BME280;4604;48.616;9.548;2023-10-13T12:17:54;96563.06;;;27.50;25.89
9139;BME280;4604;48.616;9.548;2023-10-13T12:20:49;96596.50;;;27.83;25.70
9139;BME280;4604;48.616;9.548;2023-10-13T12:23:16;96531.00;;;27.42;25.40
9139;BME280;4604;48.616;9.548;2023-10-13T12:25:45;96560.94;;;27.57;25.34
9139;BME280;4604;48.616;9.548;2023-10-13T12:28:25;96570.19;;;27.83;26.16
9139;BME280;4604;48.616;9.548;2023-10-13T12:31:05;96537.19;;;27.69;25.99
9139;BME280;4604;48.616;9.548;2023-10-13T12:33:44;96583.41;;;28.07;25.77
9139;BME280;4604;48.616;9.548;2023-10-13T12:36:12;96561.00;;;27.89;24.77
9139;BME280;4604;48.616;9.548;2023-10-13T12:38:56;96564.13;;;28.08;25.46
9139;BME280;4604;48.616;9.548;2023-10-13T12:41:40;96573.19;;;28.19;25.71
9139;BME280;4604;48.616;9.548;2023-10-13T12:44:24;96543.72;;;28.01;25.75
9139;BME280;4604;48.616;9.548;2023-10-13T12:47:09;96532.28;;;27.93;25.45
9139;BME280;4604;48.616;9.548;2023-10-13T12:49:54;96558.16;;;28.11;25.72
9139;BME280;4604;48.616;9.548;2023-10-13T12:52:33;96555.44;;;28.06;25.73
9139;BME280;4604;48.616;9.548;2023-10-13T12:55:01;96551.69;;;28.12;25.31
9139;BME280;4604;48.616;9.548;2023-10-13T12:57:33;96546.47;;;28.06;25.42
9139;BME280;4604;48.616;9.548;2023-10-13T13:00:00;96542.44;;;28.13;25.74
9139;BME280;4604;48.616;9.548;2023-10-13T13:02:41;96543.78;;;28.11;25.58
9139;BME280;4604;48.616;9.548;2023-10-13T13:05:10;96522.88;;;28.06;25.90
9139;BME280;4604;48.616;9.548;2023-10-13T13:10:19;96509.56;;;28.05;26.14
9139;BME280;4604;48.616;9.548;2023-10-13T13:13:01;96472.75;;;27.82;25.45
9139;BME280;4604;48.616;9.548;2023-10-13T13:15:27;96514.34;;;28.30;26.08
9139;BME280;4604;48.616;9.548;2023-10-13T13:17:54;96517.66;;;28.42;25.75
9139;BME280;4604;48.616;9.548;2023-10-13T13:20:22;96517.16;;;28.45;25.50
9139;BME280;4604;48.616;9.548;2023-10-13T13:22:54;96507.91;;;28.41;25.55
9139;BME280;4604;48.616;9.548;2023-10-13T13:25:21;96519.53;;;28.36;25.45
9139;BME280;4604;48.616;9.548;2023-10-13T13:27:51;96521.94;;;28.33;26.02
9139;BME280;4604;48.616;9.548;2023-10-13T13:30:18;96496.59;;;28.12;25.47
9139;BME280;4604;48.616;9.548;2023-10-13T13:32:46;96504.81;;;28.27;26.00
9139;BME280;4604;48.616;9.548;2023-10-13T13:35:13;96471.31;;;28.06;26.02
9139;BME280;4604;48.616;9.548;2023-10-13T13:37:45;96490.50;;;28.37;25.91
9139;BME280;4604;48.616;9.548;2023-10-13T13:40:12;96487.00;;;28.42;25.65
9139;BME280;4604;48.616;9.548;2023-10-13T13:42:46;96465.50;;;28.35;25.36
9139;BME280;4604;48.616;9.548;2023-10-13T13:45:13;96493.34;;;28.63;25.71
9139;BME280;4604;48.616;9.548;2023-10-13T13:47:53;96491.50;;;28.78;25.50
9139;BME280;4604;48.616;9.548;2023-10-13T13:50:21;96484.13;;;28.58;25.71
9139;BME280;4604;48.616;9.548;2023-10-13T13:52:53;96466.63;;;28.44;26.58
9139;BME280;4604;48.616;9.548;2023-10-13T13:55:21;96482.97;;;28.49;25.88
9139;BME280;4604;48.616;9.548;2023-10-13T13:57:48;96450.78;;;28.26;26.06
9139;BME280;4604;48.616;9.548;2023-10-13T14:00:16;96466.81;;;28.22;26.22
9139;BME280;4604;48.616;9.548;2023-10-13T14:02:47;96468.19;;;28.30;26.08
9139;BME280;4604;48.616;9.548;2023-10-13T14:05:14;96443.38;;;28.06;25.77